Time;durP1;ratioP1;P1;durP2;ratioP2;P2;SDS_P1;SDS_P2;PMS_P1;PMS_P2;Temp;Humidity;BMP_temperature;BMP_pressure;BME280_temperature;BME280_humidity;BME280_pressure;Samples;Min_cycle;Max_cycle;Signal;HPM_P1;HPM_P2
2022/01/23 00:01:09;;;;;;;12.65;6.50;;;4.70;99.90;;;;;;5082883;28;20032;-67
2022/01/23 00:03:44;;;;;;;12.00;5.20;;;4.70;99.90;;;;;;5099198;28;20093;-67
2022/01/23 00:06:12;;;;;;;13.30;5.32;;;4.70;99.90;;;;;;5099751;28;20346;-67
2022/01/23 00:08:40;;;;;;;11.80;5.55;;;4.60;99.90;;;;;;5099314;28;20024;-67
2022/01/23 00:11:07;;;;;;;8.05;4.22;;;4.60;99.90;;;;;;5099100;28;20031;-67
2022/01/23 00:19:13;;;;;;;9.20;5.13;;;4.60;99.90;;;;;;5098681;28;20447;-67
2022/01/23 00:21:41;;;;;;;11.82;4.15;;;4.60;99.90;;;;;;5098879;28;20032;-67
2022/01/23 00:32:10;;;;;;;13.20;4.45;;;4.50;99.90;;;;;;5099394;28;20059;-67
2022/01/23 00:34:38;;;;;;;11.98;4.28;;;4.40;99.90;;;;;;5097952;28;20028;-67
2022/01/23 00:37:05;;;;;;;13.10;4.13;;;4.40;99.90;;;;;;5099054;28;20031;-67
2022/01/23 00:39:33;;;;;;;5.75;3.38;;;4.40;99.90;;;;;;5098840;28;20089;-67
2022/01/23 00:42:00;;;;;;;10.05;4.47;;;4.40;99.90;;;;;;5099677;28;20365;-67
2022/01/23 00:44:28;;;;;;;7.45;4.10;;;4.30;99.90;;;;;;5080702;28;20416;-67
2022/01/23 00:46:56;;;;;;;10.25;4.43;;;4.30;99.90;;;;;;5098893;28;20028;-67
2022/01/23 00:49:26;;;;;;;11.13;4.32;;;4.30;99.90;;;;;;5098982;28;20024;-67
2022/01/23 00:51:55;;;;;;;6.78;3.47;;;4.30;99.90;;;;;;5097076;28;20020;-67
2022/01/23 00:54:24;;;;;;;8.13;3.95;;;4.30;99.90;;;;;;5097513;28;20032;-67
2022/01/23 00:56:52;;;;;;;10.63;5.13;;;4.30;99.90;;;;;;5097769;28;20032;-67
2022/01/23 00:59:19;;;;;;;10.43;5.07;;;4.30;99.90;;;;;;5097858;28;20016;-67
2022/01/23 01:01:46;;;;;;;9.40;4.85;;;4.30;99.90;;;;;;5097616;28;20035;-67
2022/01/23 01:04:14;;;;;;;12.48;5.03;;;4.30;99.90;;;;;;5097956;28;20111;-67
2022/01/23 01:06:41;;;;;;;11.32;5.53;;;4.30;99.90;;;;;;5097601;28;20325;-67
2022/01/23 01:09:09;;;;;;;10.38;5.88;;;4.30;99.90;;;;;;5079351;28;20412;-67
2022/01/23 01:11:56;;;;;;;12.85;6.40;;;4.30;99.90;;;;;;5063158;28;20328;-67
2022/01/23 01:17:10;;;;;;;11.90;5.38;;;4.30;99.90;;;;;;5098408;28;20032;-67
2022/01/23 01:31:06;;;;;;;13.70;6.97;;;4.40;99.90;;;;;;5098312;28;20035;-67
2022/01/23 01:33:47;;;;;;;11.98;7.13;;;4.40;99.90;;;;;;5096913;28;20031;-67
2022/01/23 01:36:24;;;;;;;12.10;7.20;;;4.40;99.90;;;;;;5097404;28;20020;-67
2022/01/23 01:38:53;;;;;;;16.90;7.50;;;4.40;99.90;;;;;;5080295;28;20028;-67
2022/01/23 01:41:21;;;;;;;18.27;8.50;;;4.40;99.90;;;;;;5079004;28;20110;-67
2022/01/23 01:43:50;;;;;;;16.63;8.10;;;4.40;99.90;;;;;;5096708;28;20103;-67
2022/01/23 01:46:17;;;;;;;13.38;7.47;;;4.40;99.90;;;;;;5096898;28;20105;-67
2022/01/23 01:48:45;;;;;;;15.50;7.40;;;4.40;99.90;;;;;;5097350;28;20016;-67
2022/01/23 01:51:15;;;;;;;13.15;7.07;;;4.40;99.90;;;;;;5097321;28;20021;-67
2022/01/23 01:53:51;;;;;;;17.73;8.00;;;4.50;99.90;;;;;;5096507;28;20077;-67
2022/01/23 01:56:19;;;;;;;13.63;7.90;;;4.40;99.90;;;;;;5097577;28;20028;-67
2022/01/23 02:09:29;;;;;;;9.50;5.18;;;4.50;99.90;;;;;;5097865;28;20073;-67
2022/01/23 02:15:27;;;;;;;11.98;6.70;;;4.50;99.90;;;;;;5097767;28;20055;-67
2022/01/23 02:18:12;;;;;;;10.98;5.75;;;4.50;99.90;;;;;;5096222;28;20033;-67
2022/01/23 02:51:25;;;;;;;6.38;2.83;;;4.50;99.90;;;;;;5097957;28;20057;-67
2022/01/23 02:54:18;;;;;;;6.50;3.70;;;4.60;99.90;;;;;;5081945;28;20016;-67
2022/01/23 02:56:45;;;;;;;9.52;4.10;;;4.50;99.90;;;;;;5096501;28;20028;-67
2022/01/23 02:59:21;;;;;;;17.98;5.15;;;4.50;99.90;;;;;;5095947;28;20028;-67
2022/01/23 03:02:07;;;;;;;6.97;3.20;;;4.50;99.90;;;;;;5096085;28;20485;-67
2022/01/23 03:04:41;;;;;;;7.30;3.15;;;4.50;99.90;;;;;;5095855;28;20038;-67
2022/01/23 03:07:35;;;;;;;7.15;3.58;;;4.50;99.90;;;;;;5095883;28;20058;-67
2022/01/23 03:10:03;;;;;;;6.80;3.58;;;4.50;99.90;;;;;;5081199;28;20025;-67
2022/01/23 03:15:26;;;;;;;5.88;3.42;;;4.40;99.90;;;;;;5098391;28;20073;-67
2022/01/23 03:26:24;;;;;;;6.82;3.92;;;4.20;99.90;;;;;;5100458;28;20035;-67
2022/01/23 03:31:58;;;;;;;7.50;4.47;;;4.10;99.90;;;;;;5085704;28;20039;-67
2022/01/23 03:34:27;;;;;;;8.43;4.30;;;4.10;99.90;;;;;;5100175;28;20031;-67
2022/01/23 03:36:56;;;;;;;10.27;4.45;;;4.00;99.90;;;;;;5100205;28;20032;-67
2022/01/23 03:39:25;;;;;;;8.45;4.68;;;3.90;99.90;;;;;;5099569;28;20028;-67
2022/01/23 03:41:52;;;;;;;7.72;3.90;;;3.80;99.90;;;;;;5099310;28;20024;-67
2022/01/23 03:44:22;;;;;;;8.75;4.35;;;3.70;99.90;;;;;;5081227;28;20475;-67
2022/01/23 03:47:15;;;;;;;7.22;4.00;;;3.60;99.90;;;;;;5098761;28;20093;-67
2022/01/23 03:49:43;;;;;;;9.98;4.15;;;3.50;99.90;;;;;;5068594;28;20404;-67
2022/01/23 03:52:11;;;;;;;7.18;4.50;;;3.30;99.90;;;;;;5099115;28;20082;-67
2022/01/23 03:54:40;;;;;;;9.95;4.13;;;3.20;99.90;;;;;;5099370;28;20362;-67
2022/01/23 03:57:09;;;;;;;10.40;5.00;;;3.10;99.90;;;;;;5098843;28;20093;-67
2022/01/23 03:59:37;;;;;;;11.10;5.35;;;3.00;99.90;;;;;;5098827;28;20514;-67
2022/01/23 04:02:05;;;;;;;10.20;5.28;;;3.00;99.90;;;;;;5099194;28;20028;-67
2022/01/23 04:04:42;;;;;;;11.27;5.85;;;2.90;99.90;;;;;;5099426;28;20031;-67
2022/01/23 04:07:16;;;;;;;10.40;5.07;;;2.80;99.90;;;;;;5099750;28;20051;-67
2022/01/23 04:09:44;;;;;;;11.07;5.38;;;2.80;99.90;;;;;;5099226;28;20370;-67
2022/01/23 04:12:26;;;;;;;12.75;5.45;;;2.80;99.90;;;;;;5099425;28;20052;-67
2022/01/23 04:15:06;;;;;;;9.77;4.95;;;2.80;99.90;;;;;;5099971;28;20058;-67
2022/01/23 04:18:28;;;;;;;12.30;5.75;;;2.80;99.90;;;;;;5099391;28;20035;-67
2022/01/23 04:20:52;;;;;;;14.40;4.97;;;2.80;99.90;;;;;;5098484;28;20024;-67
2022/01/23 04:32:08;;;;;;;11.82;4.45;;;2.90;99.90;;;;;;5083382;28;20045;-67
2022/01/23 04:34:58;;;;;;;12.25;4.80;;;3.00;99.90;;;;;;5095917;28;20123;-67
2022/01/23 04:45:49;;;;;;;13.60;5.18;;;3.20;99.90;;;;;;5099297;28;20386;-67
2022/01/23 05:04:51;;;;;;;6.85;4.00;;;3.50;99.90;;;;;;5098089;28;20372;-67
2022/01/23 05:07:18;;;;;;;8.85;3.10;;;3.60;99.90;;;;;;5097572;28;20111;-67
2022/01/23 05:09:46;;;;;;;6.70;3.45;;;3.70;99.90;;;;;;5097592;28;20027;-67
2022/01/23 05:12:14;;;;;;;8.32;3.38;;;3.70;99.90;;;;;;5097982;28;20020;-67
2022/01/23 05:14:45;;;;;;;9.88;4.38;;;3.70;99.90;;;;;;5062714;28;20420;-67
2022/01/23 05:17:15;;;;;;;10.30;5.28;;;3.70;99.90;;;;;;5079343;28;20035;-67
2022/01/23 05:19:43;;;;;;;11.50;5.53;;;3.70;99.90;;;;;;5097194;28;20031;-67
2022/01/23 05:22:21;;;;;;;12.70;5.95;;;3.70;99.90;;;;;;5079311;28;20050;-67
2022/01/23 05:25:03;;;;;;;12.52;5.88;;;3.70;99.90;;;;;;5075520;28;20044;-67
2022/01/23 05:27:32;;;;;;;12.20;5.65;;;3.70;99.90;;;;;;5077314;28;20024;-67
2022/01/23 05:29:59;;;;;;;12.55;6.00;;;3.70;99.90;;;;;;5077729;28;20481;-67
2022/01/23 05:32:34;;;;;;;12.18;6.50;;;3.70;99.90;;;;;;5077833;28;20417;-67
2022/01/23 05:35:02;;;;;;;11.80;6.23;;;3.70;99.90;;;;;;5077622;28;20056;-67
2022/01/23 05:37:31;;;;;;;12.20;5.45;;;3.70;99.90;;;;;;5077322;28;20028;-67
2022/01/23 05:39:58;;;;;;;10.88;5.60;;;3.70;99.90;;;;;;5077833;28;20020;-67
2022/01/23 05:42:26;;;;;;;12.68;5.55;;;3.70;99.90;;;;;;5077994;28;20076;-67
2022/01/23 05:44:53;;;;;;;10.23;5.40;;;3.70;99.90;;;;;;5076438;28;20412;-67
2022/01/23 05:47:21;;;;;;;15.82;6.18;;;3.70;99.90;;;;;;5059369;28;20051;-67
2022/01/23 05:49:48;;;;;;;13.10;6.93;;;3.70;99.90;;;;;;5075534;28;20048;-67
2022/01/23 05:52:15;;;;;;;16.73;7.68;;;3.70;99.90;;;;;;5076767;28;20028;-67
2022/01/23 05:54:42;;;;;;;23.05;8.35;;;3.70;99.90;;;;;;5075414;28;20027;-67
2022/01/23 05:57:10;;;;;;;15.68;7.60;;;3.70;99.90;;;;;;5077123;28;20024;-67
2022/01/23 05:59:37;;;;;;;20.38;8.48;;;3.70;99.90;;;;;;5058813;28;20075;-67
2022/01/23 06:02:05;;;;;;;15.02;7.68;;;3.80;99.90;;;;;;5076685;28;20028;-67
2022/01/23 06:04:32;;;;;;;15.88;8.02;;;3.80;99.90;;;;;;5076002;28;20029;-67
2022/01/23 06:06:59;;;;;;;18.95;7.80;;;3.80;99.90;;;;;;5075416;28;20020;-67
2022/01/23 06:09:28;;;;;;;15.38;7.53;;;3.80;99.90;;;;;;5076398;28;20016;-67
2022/01/23 06:11:56;;;;;;;18.63;8.48;;;3.80;99.90;;;;;;5077537;28;20025;-67
2022/01/23 06:14:23;;;;;;;18.38;8.77;;;3.80;99.90;;;;;;5077850;28;20021;-67
2022/01/23 06:16:50;;;;;;;18.63;8.95;;;3.80;99.90;;;;;;5077268;28;20021;-67
2022/01/23 06:19:17;;;;;;;10.07;5.32;;;3.80;99.90;;;;;;5077847;28;20025;-67
2022/01/23 06:21:44;;;;;;;18.80;9.32;;;3.80;99.90;;;;;;5077770;28;20293;-67
2022/01/23 06:24:24;;;;;;;16.58;6.97;;;3.80;99.90;;;;;;5076073;28;20044;-67
2022/01/23 06:26:57;;;;;;;15.45;7.70;;;3.80;99.90;;;;;;5076468;28;20032;-67
2022/01/23 06:29:27;;;;;;;15.70;7.30;;;3.80;99.90;;;;;;5075892;28;20396;-67
2022/01/23 06:31:55;;;;;;;14.40;7.65;;;3.80;99.90;;;;;;5076171;28;20028;-67
2022/01/23 06:34:22;;;;;;;15.43;7.63;;;3.80;99.90;;;;;;5076106;28;20416;-67
2022/01/23 06:36:52;;;;;;;16.25;7.72;;;3.80;99.90;;;;;;5075238;28;20036;-67
2022/01/23 06:39:20;;;;;;;17.10;7.60;;;3.80;99.90;;;;;;5075957;28;20379;-67
2022/01/23 06:41:49;;;;;;;18.23;8.68;;;3.70;99.90;;;;;;5076065;28;20028;-67
2022/01/23 06:44:16;;;;;;;16.77;8.57;;;3.70;99.90;;;;;;5076053;28;20024;-67
2022/01/23 06:46:45;;;;;;;19.33;8.60;;;3.70;99.90;;;;;;5076225;28;20024;-67
2022/01/23 06:49:12;;;;;;;20.30;9.45;;;3.70;99.90;;;;;;5076541;28;20029;-67
2022/01/23 06:51:40;;;;;;;19.02;9.70;;;3.70;99.90;;;;;;5079910;28;20436;-67
2022/01/23 06:54:07;;;;;;;18.30;9.77;;;3.70;99.90;;;;;;5080592;28;20028;-67
2022/01/23 06:56:35;;;;;;;19.02;9.02;;;3.60;99.90;;;;;;5081154;28;20320;-67
2022/01/23 06:59:02;;;;;;;17.33;8.30;;;3.60;99.90;;;;;;5080925;28;20384;-67
2022/01/23 07:01:29;;;;;;;21.35;9.88;;;3.60;99.90;;;;;;5080220;28;20059;-67
2022/01/23 07:03:57;;;;;;;19.10;8.90;;;3.60;99.90;;;;;;5079413;28;20040;-67
2022/01/23 07:06:25;;;;;;;26.17;10.77;;;3.60;99.90;;;;;;5063018;28;20025;-67
2022/01/23 07:08:52;;;;;;;23.10;10.30;;;3.50;99.90;;;;;;5080854;28;20077;-67
2022/01/23 07:11:20;;;;;;;19.48;9.27;;;3.50;99.90;;;;;;5081014;28;20481;-67
2022/01/23 07:13:47;;;;;;;24.33;9.95;;;3.50;99.90;;;;;;5080180;28;20031;-67
2022/01/23 07:16:15;;;;;;;19.58;10.07;;;3.50;99.90;;;;;;5079146;28;20044;-67
2022/01/23 07:18:43;;;;;;;21.38;10.13;;;3.50;99.90;;;;;;5079394;28;20501;-67
2022/01/23 07:21:11;;;;;;;25.77;11.70;;;3.50;99.90;;;;;;5079743;28;20024;-67
2022/01/23 07:23:38;;;;;;;23.00;9.63;;;3.50;99.90;;;;;;5077923;28;20051;-67
2022/01/23 07:26:07;;;;;;;23.80;10.82;;;3.50;99.90;;;;;;5061610;28;20025;-67
2022/01/23 07:28:39;;;;;;;22.40;9.80;;;3.50;99.90;;;;;;5079713;28;20044;-67
2022/01/23 07:31:09;;;;;;;20.92;9.57;;;3.60;99.90;;;;;;5077936;28;20104;-70
2022/01/23 07:33:38;;;;;;;22.00;9.70;;;3.50;99.90;;;;;;5079038;28;20048;-70
2022/01/23 07:36:05;;;;;;;20.40;10.15;;;3.50;99.90;;;;;;5080062;28;20029;-69
2022/01/23 07:38:33;;;;;;;22.38;9.75;;;3.50;99.90;;;;;;5080147;28;20400;-70
2022/01/23 07:41:00;;;;;;;19.45;8.07;;;3.50;99.90;;;;;;5079827;28;20024;-70
2022/01/23 07:43:27;;;;;;;19.08;9.60;;;3.60;99.90;;;;;;5079832;28;20045;-70
2022/01/23 07:45:54;;;;;;;18.95;10.50;;;3.50;99.90;;;;;;5079804;28;20024;-70
2022/01/23 07:48:22;;;;;;;18.95;9.20;;;3.60;99.90;;;;;;5078704;28;20021;-70
2022/01/23 07:50:49;;;;;;;21.10;9.85;;;3.60;99.90;;;;;;5078894;28;20078;-70
2022/01/23 07:53:16;;;;;;;18.33;9.02;;;3.60;99.90;;;;;;5080279;28;20020;-70
2022/01/23 07:55:44;;;;;;;18.75;7.95;;;3.70;99.90;;;;;;5077801;28;20020;-70
2022/01/23 07:58:14;;;;;;;18.00;8.07;;;3.70;99.90;;;;;;5061034;28;20028;-71
2022/01/23 08:00:43;;;;;;;15.30;7.30;;;3.70;99.90;;;;;;5078468;28;20078;-76
2022/01/23 08:03:10;;;;;;;15.20;7.68;;;3.70;99.90;;;;;;5077720;28;20025;-70
2022/01/23 08:05:38;;;;;;;13.10;6.07;;;3.80;99.90;;;;;;5079061;28;20031;-70
2022/01/23 08:08:05;;;;;;;14.65;8.77;;;3.90;99.90;;;;;;5078522;28;20020;-70
2022/01/23 08:10:33;;;;;;;16.52;7.22;;;3.90;99.90;;;;;;5077523;28;20017;-70
2022/01/23 08:13:03;;;;;;;16.42;8.20;;;3.90;99.90;;;;;;5077309;28;20028;-68
2022/01/23 08:15:31;;;;;;;14.68;6.88;;;3.90;99.90;;;;;;5078269;28;20025;-68
2022/01/23 08:18:04;;;;;;;14.15;6.78;;;4.00;99.90;;;;;;5079070;28;20020;-71
2022/01/23 08:20:33;;;;;;;14.43;8.05;;;4.10;99.90;;;;;;5079313;28;20028;-70
2022/01/23 08:23:02;;;;;;;13.75;7.28;;;4.10;99.90;;;;;;5080963;28;20058;-70
2022/01/23 08:25:32;;;;;;;14.13;7.43;;;4.20;99.90;;;;;;5099221;28;20063;-70
2022/01/23 08:27:59;;;;;;;18.77;9.57;;;4.30;99.90;;;;;;5099292;28;20020;-70
2022/01/23 08:30:26;;;;;;;18.63;9.02;;;4.30;99.90;;;;;;5082080;28;20024;-70
2022/01/23 08:32:54;;;;;;;18.33;8.80;;;4.40;99.90;;;;;;5099162;28;20044;-68
2022/01/23 08:35:22;;;;;;;17.23;9.13;;;4.50;99.90;;;;;;5099159;28;20027;-67
2022/01/23 08:37:49;;;;;;;15.95;9.00;;;4.50;99.90;;;;;;5098235;28;20336;-68
2022/01/23 08:40:45;;;;;;;15.82;8.88;;;4.50;99.90;;;;;;5080220;28;20431;-67
2022/01/23 08:43:12;;;;;;;18.42;7.97;;;4.60;99.90;;;;;;5097765;28;20036;-67
2022/01/23 08:45:40;;;;;;;17.23;8.30;;;4.60;99.90;;;;;;5097914;28;20020;-67
2022/01/23 08:48:07;;;;;;;17.00;7.78;;;4.70;99.90;;;;;;5098468;28;20028;-67
2022/01/23 08:50:35;;;;;;;17.67;8.45;;;4.70;99.90;;;;;;5097826;28;20028;-66
2022/01/23 08:53:03;;;;;;;16.73;8.70;;;4.70;99.90;;;;;;5097869;28;20099;-67
2022/01/23 08:55:30;;;;;;;17.92;8.15;;;4.80;99.90;;;;;;5097729;28;20028;-66
2022/01/23 08:57:58;;;;;;;14.73;7.45;;;4.80;99.90;;;;;;5079935;28;20050;-67
2022/01/23 09:00:25;;;;;;;13.60;7.95;;;4.80;99.90;;;;;;5098505;28;20024;-66
2022/01/23 09:02:55;;;;;;;15.60;8.05;;;4.80;99.90;;;;;;5098539;28;20077;-67
2022/01/23 09:05:23;;;;;;;15.80;7.57;;;4.90;99.90;;;;;;5098588;28;20031;-67
2022/01/23 09:07:51;;;;;;;17.58;7.63;;;4.90;99.90;;;;;;5098999;28;20018;-66
2022/01/23 09:10:29;;;;;;;15.85;7.28;;;5.00;99.90;;;;;;5098264;28;20112;-73
2022/01/23 09:15:30;;;;;;;18.25;8.27;;;5.00;99.90;;;;;;5098503;28;20056;-66
2022/01/23 09:17:58;;;;;;;14.68;8.05;;;5.10;99.90;;;;;;5098308;28;20035;-66
2022/01/23 09:20:26;;;;;;;16.80;7.72;;;5.00;99.90;;;;;;5097888;28;20439;-66
2022/01/23 09:22:53;;;;;;;14.90;7.35;;;5.10;99.90;;;;;;5097609;28;20020;-66
2022/01/23 09:25:21;;;;;;;17.23;7.85;;;5.10;99.90;;;;;;5097128;28;20039;-67
2022/01/23 09:27:48;;;;;;;15.30;8.48;;;5.10;99.90;;;;;;5079215;28;20101;-67
2022/01/23 09:30:20;;;;;;;14.60;6.80;;;5.10;99.90;;;;;;5079188;28;20105;-67
2022/01/23 09:32:49;;;;;;;16.25;7.53;;;5.20;99.90;;;;;;5097001;28;20020;-67
2022/01/23 09:35:18;;;;;;;13.35;7.13;;;5.20;99.90;;;;;;5097077;28;20038;-67
2022/01/23 09:37:46;;;;;;;12.95;6.82;;;5.20;99.90;;;;;;5096944;28;20034;-66
2022/01/23 09:40:14;;;;;;;12.20;6.65;;;5.30;99.90;;;;;;5096886;28;20024;-68
2022/01/23 09:42:54;;;;;;;13.65;6.35;;;5.30;99.90;;;;;;5097800;28;20034;-67
2022/01/23 09:45:23;;;;;;;15.95;6.22;;;5.30;99.90;;;;;;5097732;28;20028;-67
2022/01/23 09:47:55;;;;;;;10.48;5.88;;;5.40;99.90;;;;;;5080037;28;20028;-67
2022/01/23 09:50:23;;;;;;;10.27;5.40;;;5.40;99.90;;;;;;5079907;28;20042;-67
2022/01/23 09:52:53;;;;;;;12.52;6.85;;;5.40;99.90;;;;;;5098297;28;20447;-67
2022/01/23 09:55:22;;;;;;;10.35;5.47;;;5.50;99.90;;;;;;5097836;28;20050;-66
2022/01/23 09:57:50;;;;;;;11.85;6.03;;;5.60;99.90;;;;;;5063393;28;20032;-67
2022/01/23 10:00:24;;;;;;;11.98;5.55;;;5.60;99.90;;;;;;5097586;28;20411;-68
2022/01/23 10:02:52;;;;;;;13.60;6.45;;;5.60;99.90;;;;;;5097090;28;20027;-66
2022/01/23 10:05:20;;;;;;;12.32;5.85;;;5.60;99.90;;;;;;5096593;28;20020;-67
2022/01/23 10:07:48;;;;;;;12.55;5.28;;;5.60;99.90;;;;;;5096580;28;20024;-67
2022/01/23 10:10:23;;;;;;;11.73;5.38;;;5.60;99.90;;;;;;5078744;28;20453;-67
2022/01/23 10:12:57;;;;;;;11.90;4.88;;;5.60;99.90;;;;;;5096418;28;20020;-67
2022/01/23 10:15:27;;;;;;;10.75;4.78;;;5.60;99.90;;;;;;5096656;28;20107;-67
2022/01/23 10:17:55;;;;;;;10.05;4.95;;;5.60;99.90;;;;;;5096747;28;20020;-67
2022/01/23 10:20:24;;;;;;;12.30;5.78;;;5.60;99.90;;;;;;5078756;28;20028;-67
2022/01/23 10:22:52;;;;;;;10.05;5.53;;;5.60;99.90;;;;;;5096244;28;20102;-67
2022/01/23 10:25:26;;;;;;;11.95;5.70;;;5.70;99.90;;;;;;5101093;28;20024;-67
2022/01/23 10:28:05;;;;;;;13.07;5.70;;;5.70;99.90;;;;;;5083624;28;20020;-67
2022/01/23 10:30:37;;;;;;;10.38;5.57;;;5.70;99.90;;;;;;5101608;28;20028;-67
2022/01/23 10:33:23;;;;;;;8.82;4.95;;;5.70;99.90;;;;;;5101429;28;20020;-67
2022/01/23 10:36:07;;;;;;;7.00;3.83;;;5.70;99.90;;;;;;5083428;28;20423;-67
2022/01/23 10:38:40;;;;;;;8.82;4.38;;;5.80;99.90;;;;;;5083372;28;20036;-66
2022/01/23 10:49:58;;;;;;;7.90;4.80;;;5.80;99.90;;;;;;5100266;28;20347;-66
2022/01/23 10:52:35;;;;;;;9.73;4.20;;;5.80;99.90;;;;;;5100269;28;20035;-66
2022/01/23 10:55:06;;;;;;;10.73;5.28;;;5.80;99.90;;;;;;5100187;28;20020;-66
2022/01/23 10:57:48;;;;;;;10.13;4.28;;;5.70;99.90;;;;;;5082112;28;20424;-66
2022/01/23 11:00:37;;;;;;;8.70;5.25;;;5.80;99.90;;;;;;5100294;28;20081;-67
2022/01/23 11:03:22;;;;;;;9.85;4.35;;;5.70;99.90;;;;;;5081864;28;20027;-67
2022/01/23 11:05:50;;;;;;;9.38;5.00;;;5.70;99.90;;;;;;5099996;28;20090;-67
2022/01/23 11:08:22;;;;;;;7.50;4.55;;;5.70;99.90;;;;;;5100834;28;20024;-67
2022/01/23 11:10:57;;;;;;;9.80;4.95;;;5.70;99.90;;;;;;5082665;28;20030;-67
2022/01/23 11:19:30;;;;;;;10.52;4.55;;;5.80;99.90;;;;;;5100880;28;20377;-68
2022/01/23 11:22:03;;;;;;;9.32;4.82;;;5.80;99.90;;;;;;5100996;28;20024;-66
2022/01/23 11:24:50;;;;;;;12.68;5.68;;;5.80;99.90;;;;;;5095690;28;20052;-66
2022/01/23 11:27:23;;;;;;;9.52;5.10;;;5.80;99.90;;;;;;5078166;28;20024;-66
2022/01/23 11:29:57;;;;;;;11.02;6.10;;;5.80;99.90;;;;;;5079336;28;20024;-67
2022/01/23 11:32:28;;;;;;;11.18;5.93;;;5.80;99.90;;;;;;5079125;28;20024;-67
2022/01/23 11:35:05;;;;;;;10.27;5.18;;;5.80;99.90;;;;;;5078622;28;20032;-67
2022/01/23 11:37:35;;;;;;;12.25;5.93;;;5.80;99.90;;;;;;5079547;28;20098;-66
2022/01/23 11:40:09;;;;;;;11.55;6.10;;;5.80;99.90;;;;;;5078867;28;20040;-67
2022/01/23 11:53:45;;;;;;;9.85;5.40;;;5.80;99.90;;;;;;5080365;28;20051;-67
2022/01/23 11:54:07;;;;;;;11.82;5.57;;;5.80;99.90;;;;;;5079354;28;20029;-67
2022/01/23 11:56:38;;;;;;;11.95;7.25;;;5.70;99.90;;;;;;5079890;28;20031;-69
2022/01/23 11:59:28;;;;;;;10.50;5.57;;;5.70;99.90;;;;;;5079851;28;20025;-69
2022/01/23 12:05:15;;;;;;;12.55;6.75;;;5.70;99.90;;;;;;5037940;28;20064;-67
2022/01/23 12:07:45;;;;;;;13.98;7.57;;;5.70;99.90;;;;;;5071168;28;20043;-67
2022/01/23 12:16:21;;;;;;;11.10;6.05;;;5.70;99.90;;;;;;5077499;28;20020;-65
2022/01/23 12:16:28;;;;;;;11.57;5.60;;;5.70;99.90;;;;;;5070928;28;20424;-67
2022/01/23 12:19:18;;;;;;;12.43;5.57;;;5.60;99.90;;;;;;5078337;28;20031;-67
2022/01/23 12:21:48;;;;;;;10.23;5.70;;;5.60;99.90;;;;;;5078629;28;20024;-67
2022/01/23 12:24:17;;;;;;;11.55;6.00;;;5.70;99.90;;;;;;5089853;28;20127;-67
2022/01/23 12:26:47;;;;;;;10.52;5.45;;;5.60;99.90;;;;;;5080583;28;20078;-67
2022/01/23 12:29:28;;;;;;;12.45;6.03;;;5.70;99.90;;;;;;5098246;28;20048;-67
2022/01/23 12:32:29;;;;;;;8.65;5.25;;;5.70;99.90;;;;;;5099004;28;20023;-67
2022/01/23 12:34:59;;;;;;;10.40;4.93;;;5.80;99.90;;;;;;5056659;28;20428;-67
2022/01/23 12:37:46;;;;;;;9.63;5.32;;;5.80;99.90;;;;;;5081238;28;20043;-67
2022/01/23 12:40:26;;;;;;;9.50;5.15;;;5.80;99.90;;;;;;5064489;28;20020;-67
2022/01/23 12:43:14;;;;;;;10.02;5.70;;;5.80;99.90;;;;;;5099195;28;20052;-67
2022/01/23 12:45:53;;;;;;;15.02;6.80;;;5.80;99.90;;;;;;5099103;28;20028;-67
2022/01/23 12:48:27;;;;;;;9.77;5.35;;;5.80;99.90;;;;;;5097918;28;20020;-67
2022/01/23 12:51:04;;;;;;;10.32;5.32;;;5.80;99.90;;;;;;5098906;28;20408;-67
2022/01/23 12:53:47;;;;;;;9.68;5.47;;;5.80;99.90;;;;;;5097877;28;20079;-67
2022/01/23 12:56:16;;;;;;;13.65;6.45;;;5.80;99.90;;;;;;5098760;28;20024;-67
2022/01/23 12:58:52;;;;;;;12.60;6.40;;;5.90;99.90;;;;;;5097694;28;20084;-67
2022/01/23 13:01:23;;;;;;;13.00;5.55;;;5.90;99.90;;;;;;5097732;28;20031;-67
2022/01/23 13:03:56;;;;;;;9.32;5.32;;;5.90;99.90;;;;;;5097565;28;20024;-67
2022/01/23 13:06:51;;;;;;;10.82;5.68;;;5.90;99.90;;;;;;5097791;28;20101;-67
2022/01/23 13:09:35;;;;;;;13.55;6.55;;;5.90;99.90;;;;;;5097167;28;20103;-67
2022/01/23 13:12:26;;;;;;;13.40;6.28;;;5.90;99.90;;;;;;5097311;28;20028;-66
2022/01/23 13:26:39;;;;;;;9.23;4.97;;;6.00;99.90;;;;;;5098583;28;20075;-66
2022/01/23 13:32:20;;;;;;;12.32;6.78;;;6.00;99.90;;;;;;5098417;28;20545;-67
2022/01/23 13:35:03;;;;;;;9.52;4.82;;;6.00;99.90;;;;;;5097724;28;20035;-66
2022/01/23 13:37:35;;;;;;;8.77;4.30;;;6.00;99.90;;;;;;5098552;28;20028;-67
2022/01/23 13:40:13;;;;;;;8.57;4.88;;;6.00;99.90;;;;;;5097490;28;20020;-66
2022/01/23 13:42:56;;;;;;;7.70;3.92;;;6.00;99.90;;;;;;5097509;28;20044;-66
2022/01/23 13:51:43;;;;;;;7.63;4.65;;;6.10;99.90;;;;;;5096869;28;20023;-66
2022/01/23 13:57:37;;;;;;;8.10;4.53;;;6.10;99.90;;;;;;5096545;28;20023;-66
2022/01/23 14:00:15;;;;;;;5.47;3.60;;;6.10;99.90;;;;;;5097825;28;20035;-66
2022/01/23 14:02:47;;;;;;;8.90;4.75;;;6.10;99.90;;;;;;5098076;28;20081;-66
2022/01/23 14:05:19;;;;;;;9.88;3.90;;;6.10;99.90;;;;;;5097715;28;20035;-65
2022/01/23 14:08:00;;;;;;;6.35;3.85;;;6.10;99.90;;;;;;5097762;28;20051;-66
2022/01/23 14:10:37;;;;;;;6.95;3.45;;;6.10;99.90;;;;;;5097660;28;20343;-66
2022/01/23 14:13:19;;;;;;;8.55;3.47;;;6.10;99.90;;;;;;5097329;28;20059;-66
2022/01/23 14:15:48;;;;;;;6.22;3.47;;;6.10;99.90;;;;;;5097872;28;20043;-67
2022/01/23 14:18:22;;;;;;;6.18;3.75;;;6.10;99.90;;;;;;5096910;28;20016;-67
2022/01/23 14:21:05;;;;;;;5.45;3.70;;;6.10;99.90;;;;;;5096637;28;20028;-67
2022/01/23 14:23:34;;;;;;;6.05;3.67;;;6.10;99.90;;;;;;5096385;28;20370;-67
2022/01/23 14:26:12;;;;;;;5.15;2.90;;;6.00;99.90;;;;;;5096410;28;20182;-67
2022/01/23 14:28:46;;;;;;;6.43;3.10;;;6.00;99.90;;;;;;5096519;28;20021;-67
2022/01/23 14:31:21;;;;;;;7.05;3.08;;;6.00;99.90;;;;;;5096596;28;20023;-67
2022/01/23 14:33:52;;;;;;;;;;;6.00;99.90;;;;;;5096711;28;20051;-67
2022/01/23 14:36:24;;;;;;;5.28;3.25;;;6.00;99.90;;;;;;5096685;28;19904;-66
2022/01/23 14:38:58;;;;;;;4.65;2.47;;;6.00;99.90;;;;;;5097368;28;20362;-67
2022/01/23 14:41:31;;;;;;;7.78;3.28;;;6.00;99.90;;;;;;5097739;28;20098;-67
2022/01/23 14:43:59;;;;;;;8.57;2.97;;;6.00;99.90;;;;;;5097560;28;20020;-66
2022/01/23 14:46:26;;;;;;;6.03;3.00;;;6.00;99.90;;;;;;5079402;28;20028;-66
2022/01/23 14:48:59;;;;;;;4.63;3.10;;;6.00;99.90;;;;;;5097270;28;20403;-66
2022/01/23 14:51:34;;;;;;;8.82;3.83;;;6.00;99.90;;;;;;5097651;28;20020;-66
2022/01/23 14:54:03;;;;;;;4.97;3.03;;;6.00;99.90;;;;;;5096903;28;20024;-66
2022/01/23 14:56:35;;;;;;;6.13;3.08;;;6.00;99.90;;;;;;5062575;28;20026;-66
2022/01/23 14:59:08;;;;;;;4.20;2.90;;;5.90;99.90;;;;;;5096104;28;20024;-66
2022/01/23 15:01:35;;;;;;;6.32;4.72;;;5.90;99.90;;;;;;5096415;28;20020;-66
2022/01/23 15:04:08;;;;;;;7.60;3.10;;;5.90;99.90;;;;;;5096081;28;20077;-66
2022/01/23 15:06:44;;;;;;;9.32;3.50;;;5.90;99.90;;;;;;5096974;28;20392;-67
2022/01/23 15:09:13;;;;;;;7.40;3.10;;;5.90;99.90;;;;;;5095998;28;20103;-67
2022/01/23 15:11:42;;;;;;;5.65;3.65;;;5.90;99.90;;;;;;5098592;28;20020;-67
2022/01/23 15:14:10;;;;;;;5.93;3.45;;;5.80;99.90;;;;;;5081786;28;20102;-67
2022/01/23 15:16:38;;;;;;;5.88;3.58;;;5.80;99.90;;;;;;5099674;28;20024;-67
2022/01/23 15:19:07;;;;;;;7.03;3.88;;;5.80;99.90;;;;;;5099831;28;20020;-67
2022/01/23 15:21:35;;;;;;;6.30;3.55;;;5.80;99.90;;;;;;5101215;28;20380;-66
2022/01/23 15:24:04;;;;;;;10.35;4.10;;;5.70;99.90;;;;;;5100182;28;20125;-67
2022/01/23 15:26:34;;;;;;;7.65;3.47;;;5.70;99.90;;;;;;5082715;28;20024;-66
2022/01/23 15:29:03;;;;;;;7.28;4.07;;;5.70;99.90;;;;;;5100379;28;20026;-66
2022/01/23 15:31:31;;;;;;;8.93;4.18;;;5.60;99.90;;;;;;5100363;28;20464;-67
2022/01/23 15:33:58;;;;;;;7.47;4.00;;;5.60;99.90;;;;;;5083115;28;20020;-67
2022/01/23 15:36:25;;;;;;;9.48;5.05;;;5.50;99.90;;;;;;5100440;28;20103;-67
2022/01/23 15:38:53;;;;;;;7.72;4.07;;;5.50;99.90;;;;;;5100170;28;20024;-66
2022/01/23 15:41:20;;;;;;;6.47;4.05;;;5.50;99.90;;;;;;5081429;28;20029;-67
2022/01/23 15:43:48;;;;;;;8.85;4.28;;;5.50;99.90;;;;;;5081321;28;20028;-66
2022/01/23 15:46:15;;;;;;;11.43;4.15;;;5.50;99.90;;;;;;5099339;28;20105;-66
2022/01/23 15:48:43;;;;;;;9.63;4.45;;;5.50;99.90;;;;;;5099765;28;20044;-67
2022/01/23 15:51:11;;;;;;;8.68;4.00;;;5.40;99.90;;;;;;5081946;28;20099;-66
2022/01/23 15:53:38;;;;;;;8.57;4.95;;;5.40;99.90;;;;;;5099015;28;20020;-66
2022/01/23 15:56:06;;;;;;;10.63;5.10;;;5.40;99.90;;;;;;5099774;28;20020;-66
2022/01/23 15:58:33;;;;;;;9.30;4.80;;;5.40;99.90;;;;;;5098925;28;20027;-66
2022/01/23 16:01:01;;;;;;;9.63;4.55;;;5.40;99.90;;;;;;5099439;28;20023;-67
2022/01/23 16:03:29;;;;;;;14.80;5.25;;;5.40;99.90;;;;;;5081460;28;20024;-66
2022/01/23 16:05:57;;;;;;;8.77;4.28;;;5.40;99.90;;;;;;5065159;28;20031;-67
2022/01/23 16:08:26;;;;;;;10.20;4.60;;;5.40;99.90;;;;;;5081696;28;20115;-72
2022/01/23 16:10:53;;;;;;;9.32;4.65;;;5.40;99.90;;;;;;5081562;28;20020;-67